DTTD

Remada Air Base Airport

Remada, Tunisia
METAR DTTD 231400Z 30012KT 260V340 9999 SCT026 14/02 Q1007
Observed Flight Rules
Feb-23 @ 14:00 UTC (37 minutes ago) Visual Flight Rules
Wind Visibility Clouds
300° at 12 knots 10,000+ meters
  • Scattered at 2,600' AGL
Temperatures Readings
Current 14°C / 57°F
Dewpoint 2°C / 36°F
Humidity 44%
Altimeter 29.73" Hg
Pressure 1007 hPa
Elevation 301
METAR DTTD 231400Z 30012KT 260V340 9999 SCT026 14/02 Q1007
Observed Flight Rules
Feb-23 @ 14:00 UTC
(37 minutes ago)
VFR
Wind Visibility
300° at 12 knots 10,000+ meters
Clouds
  • Scattered at 2,600' AGL
Temperature Dewpoint
14°C / 57°F 2°C / 36°F
Humidity Altimeter Pressure
44% 29.73" Hg 1007 hPa